Time;durP1;ratioP1;P1;durP2;ratioP2;P2;SDS_P1;SDS_P2;PMS_P1;PMS_P2;Temp;Humidity;BMP_temperature;BMP_pressure;BME280_temperature;BME280_humidity;BME280_pressure;Samples;Min_cycle;Max_cycle;Signal;HPM_P1;HPM_P2
2022/04/05 00:01:26;;;;;;;19.38;15.35;;;25.70;99.90;;;;;;5055674;28;20024;-66
2022/04/05 00:03:52;;;;;;;23.48;20.67;;;25.80;99.90;;;;;;5055700;28;20045;-66
2022/04/05 00:06:19;;;;;;;25.20;21.38;;;25.70;99.90;;;;;;5055881;28;20025;-66
2022/04/05 00:08:46;;;;;;;28.30;24.25;;;25.70;99.90;;;;;;5069324;28;20363;-66
2022/04/05 00:11:12;;;;;;;28.30;23.70;;;25.80;99.90;;;;;;5076134;28;20446;-64
2022/04/05 00:13:39;;;;;;;26.58;23.67;;;25.80;99.90;;;;;;5072409;28;20395;-66
2022/04/05 00:16:06;;;;;;;31.13;23.33;;;25.80;99.90;;;;;;5055588;28;20033;-68
2022/04/05 00:18:33;;;;;;;29.30;20.33;;;25.90;99.90;;;;;;5056370;28;20036;-66
2022/04/05 00:21:00;;;;;;;21.67;18.35;;;25.80;99.90;;;;;;5056113;28;20025;-66
2022/04/05 00:23:26;;;;;;;23.38;17.92;;;25.80;99.90;;;;;;5055883;28;20019;-65
2022/04/05 00:25:53;;;;;;;18.25;15.85;;;25.70;99.90;;;;;;5054796;28;20479;-66
2022/04/05 00:28:20;;;;;;;16.88;14.25;;;25.70;99.90;;;;;;5055545;28;20036;-66
2022/04/05 00:30:46;;;;;;;17.45;13.52;;;25.70;99.90;;;;;;5055741;28;20436;-66
2022/04/05 00:33:13;;;;;;;18.77;13.80;;;25.70;99.90;;;;;;5055717;28;20029;-67
2022/04/05 00:35:40;;;;;;;17.77;12.90;;;25.70;99.90;;;;;;5056094;28;20021;-66
2022/04/05 00:38:08;;;;;;;15.50;10.85;;;25.70;99.90;;;;;;5052997;28;20148;-66
2022/04/05 00:40:37;;;;;;;15.30;12.05;;;25.80;99.90;;;;;;5039707;28;20021;-67
2022/04/05 00:43:05;;;;;;;12.98;11.20;;;25.80;99.90;;;;;;5037107;28;20029;-67
2022/04/05 00:45:35;;;;;;;13.13;11.70;;;25.80;99.90;;;;;;5055792;28;20021;-67
2022/04/05 00:48:04;;;;;;;14.40;11.90;;;25.90;99.90;;;;;;5054461;28;20100;-69
2022/04/05 00:50:38;;;;;;;14.30;11.73;;;26.00;99.90;;;;;;5078347;22;20300;-67
2022/04/05 00:53:07;;;;;;;14.65;11.82;;;26.20;99.90;;;;;;5018730;28;20026;-69
2022/04/05 00:55:35;;;;;;;13.30;10.60;;;26.40;99.90;;;;;;5013758;28;20105;-67
2022/04/05 00:58:04;;;;;;;18.05;11.63;;;26.50;99.90;;;;;;5032619;28;20064;-68
2022/04/05 01:00:32;;;;;;;12.73;11.43;;;26.60;99.90;;;;;;5032146;28;20029;-67
2022/04/05 01:03:00;;;;;;;14.40;11.10;;;26.70;99.90;;;;;;5034671;28;20022;-68
2022/04/05 01:05:28;;;;;;;15.00;11.85;;;26.70;99.90;;;;;;5035767;28;20476;-68
2022/04/05 01:07:59;;;;;;;16.15;11.65;;;26.80;99.90;;;;;;5016446;28;20453;-67
2022/04/05 01:10:29;;;;;;;16.35;13.57;;;26.90;99.90;;;;;;5016030;28;20544;-67
2022/04/05 01:12:56;;;;;;;18.73;14.43;;;26.90;99.90;;;;;;5032607;28;20109;-66
2022/04/05 01:15:24;;;;;;;20.10;13.23;;;27.00;99.90;;;;;;5034773;28;20040;-67
2022/04/05 01:17:52;;;;;;;18.67;16.67;;;27.10;99.90;;;;;;5018299;28;20032;-67
2022/04/05 01:20:18;;;;;;;25.25;20.13;;;27.20;99.90;;;;;;5015616;28;20026;-67
2022/04/05 01:22:50;;;;;;;38.50;30.98;;;27.20;99.90;;;;;;5015392;28;20212;-66
2022/04/05 01:25:19;;;;;;;34.25;27.65;;;27.40;99.90;;;;;;5015460;28;20397;-66
2022/04/05 01:27:46;;;;;;;31.55;25.10;;;27.50;99.90;;;;;;5015527;28;20100;-67
2022/04/05 01:30:13;;;;;;;23.88;19.80;;;27.60;99.90;;;;;;5015294;28;20084;-67
2022/04/05 01:32:40;;;;;;;22.52;19.05;;;27.60;99.90;;;;;;5016277;28;20033;-67
2022/04/05 01:35:07;;;;;;;19.30;16.63;;;27.60;99.90;;;;;;5015133;28;20076;-67
2022/04/05 01:37:34;;;;;;;16.77;14.18;;;27.70;99.90;;;;;;5024930;28;20048;-68
2022/04/05 01:40:01;;;;;;;15.05;12.07;;;27.70;99.90;;;;;;5035112;28;20523;-67
2022/04/05 01:42:27;;;;;;;15.00;12.00;;;27.70;99.90;;;;;;5034594;28;20021;-67
2022/04/05 01:44:57;;;;;;;16.35;13.63;;;27.70;99.90;;;;;;5033874;28;20029;-67
2022/04/05 01:47:24;;;;;;;15.27;13.30;;;27.70;99.90;;;;;;5034927;28;20034;-67
2022/04/05 01:49:50;;;;;;;18.40;13.85;;;27.80;99.90;;;;;;5034424;28;20080;-68
2022/04/05 01:52:18;;;;;;;17.90;15.35;;;27.90;99.90;;;;;;5057330;22;20078;-68
2022/04/05 01:54:46;;;;;;;19.52;14.55;;;27.90;99.90;;;;;;5066791;28;20056;-68
2022/04/05 01:57:13;;;;;;;20.20;14.32;;;28.00;99.90;;;;;;5074383;28;20036;-66
2022/04/05 01:59:43;;;;;;;20.65;14.93;;;28.00;99.90;;;;;;5075222;22;20052;-67
2022/04/05 02:02:11;;;;;;;23.20;15.73;;;28.10;99.90;;;;;;5054243;28;20267;-67
2022/04/05 02:04:39;;;;;;;19.33;14.70;;;28.10;99.90;;;;;;5054313;28;20103;-67
2022/04/05 02:07:18;;;;;;;24.77;16.00;;;28.10;99.90;;;;;;5053459;28;20467;-66
2022/04/05 02:09:47;;;;;;;21.85;15.55;;;28.10;99.90;;;;;;5034510;28;20294;-67
2022/04/05 02:12:14;;;;;;;18.50;14.95;;;28.20;99.90;;;;;;5053559;28;20040;-67
2022/04/05 02:14:41;;;;;;;19.70;16.27;;;28.20;99.90;;;;;;5054151;28;20033;-67
2022/04/05 02:17:09;;;;;;;22.23;17.27;;;28.30;99.90;;;;;;5053975;28;20036;-67
2022/04/05 02:19:38;;;;;;;24.73;17.38;;;28.30;99.90;;;;;;5053092;28;20037;-66
2022/04/05 02:22:05;;;;;;;23.05;17.13;;;28.30;99.90;;;;;;5052666;28;20111;-66
2022/04/05 02:24:32;;;;;;;21.80;16.55;;;28.30;99.90;;;;;;5053094;28;20104;-67
2022/04/05 02:26:59;;;;;;;21.75;17.40;;;28.50;99.90;;;;;;5054318;28;20471;-67
2022/04/05 02:29:25;;;;;;;26.23;20.80;;;28.60;99.90;;;;;;5056805;28;20390;-67
2022/04/05 02:31:52;;;;;;;23.65;20.50;;;28.60;99.90;;;;;;5056666;28;20023;-67
2022/04/05 02:34:19;;;;;;;23.83;18.83;;;28.60;99.90;;;;;;5056681;28;20048;-66
2022/04/05 02:36:45;;;;;;;24.73;20.90;;;28.70;99.90;;;;;;5056867;28;20025;-66
2022/04/05 02:39:13;;;;;;;24.27;19.15;;;28.80;99.90;;;;;;5056304;28;20055;-66
2022/04/05 02:41:39;;;;;;;23.77;19.30;;;28.90;99.90;;;;;;5056945;28;20032;-67
2022/04/05 02:44:06;;;;;;;31.83;20.15;;;28.90;99.90;;;;;;5056576;28;20459;-66
2022/04/05 02:46:33;;;;;;;23.20;18.95;;;28.90;99.90;;;;;;5056242;28;20377;-66
2022/04/05 02:49:00;;;;;;;22.60;19.63;;;29.00;99.90;;;;;;5056625;28;20020;-67
2022/04/05 02:51:27;;;;;;;25.98;19.77;;;29.00;99.90;;;;;;5055442;28;20021;-67
2022/04/05 02:53:53;;;;;;;23.70;19.58;;;28.90;99.90;;;;;;5056508;28;20028;-67
2022/04/05 02:56:20;;;;;;;26.13;20.42;;;29.00;99.90;;;;;;5056505;28;20510;-67
2022/04/05 02:58:48;;;;;;;32.00;21.15;;;29.00;99.90;;;;;;5056276;28;20118;-66
2022/04/05 03:01:16;;;;;;;30.00;21.48;;;29.10;99.90;;;;;;5056377;28;20047;-66
2022/04/05 03:03:43;;;;;;;43.25;28.35;;;29.30;99.90;;;;;;5048647;28;20030;-69
2022/04/05 03:06:10;;;;;;;41.65;26.90;;;29.50;99.90;;;;;;5057603;28;20028;-66
2022/04/05 03:08:38;;;;;;;57.33;35.25;;;29.80;99.90;;;;;;5056505;28;20036;-69
2022/04/05 03:11:05;;;;;;;46.90;31.25;;;30.00;99.90;;;;;;5072850;28;20056;-68
2022/04/05 03:13:32;;;;;;;35.15;24.70;;;30.10;99.90;;;;;;5055771;28;20052;-67
2022/04/05 03:15:59;;;;;;;27.52;21.17;;;30.30;99.90;;;;;;5075531;28;20032;-67
2022/04/05 03:18:26;;;;;;;28.00;21.30;;;30.40;99.90;;;;;;5075390;28;20025;-67
2022/04/05 03:20:53;;;;;;;36.03;25.92;;;30.20;99.90;;;;;;5075556;28;20024;-67
2022/04/05 03:23:21;;;;;;;33.00;23.38;;;30.10;99.90;;;;;;5056197;28;20027;-66
2022/04/05 03:25:49;;;;;;;30.65;21.88;;;30.00;99.90;;;;;;5051031;28;20025;-67
2022/04/05 03:28:16;;;;;;;31.15;21.85;;;30.10;99.90;;;;;;5056549;28;20033;-66
2022/04/05 03:30:43;;;;;;;33.90;25.08;;;30.20;99.90;;;;;;5063293;28;20096;-66
2022/04/05 03:33:10;;;;;;;19.35;14.90;;;30.20;99.90;;;;;;5051921;28;20070;-70
2022/04/05 03:35:37;;;;;;;26.02;18.67;;;30.20;99.90;;;;;;5055523;28;20109;-67
2022/04/05 03:38:04;;;;;;;30.55;21.80;;;30.50;99.90;;;;;;5054932;28;20395;-67
2022/04/05 03:40:32;;;;;;;32.13;24.48;;;30.60;99.90;;;;;;5048059;28;20026;-67
2022/04/05 03:42:59;;;;;;;27.55;20.35;;;30.60;99.90;;;;;;5051676;28;20482;-66
2022/04/05 03:45:26;;;;;;;22.80;18.50;;;30.70;99.90;;;;;;5052841;28;20021;-68
2022/04/05 03:47:52;;;;;;;26.45;19.65;;;30.70;99.90;;;;;;5041608;28;21605;-68
2022/04/05 03:50:22;;;;;;;28.75;22.58;;;30.60;99.90;;;;;;5044114;28;20071;-69
2022/04/05 03:52:49;;;;;;;23.50;17.58;;;30.60;99.90;;;;;;5055283;28;20043;-69
2022/04/05 03:55:15;;;;;;;44.88;33.13;;;30.60;99.90;;;;;;5055152;28;20047;-69
2022/04/05 03:57:42;;;;;;;31.23;23.58;;;30.60;99.90;;;;;;5055322;28;20021;-66
2022/04/05 04:00:09;;;;;;;23.30;20.08;;;30.60;99.90;;;;;;5056117;28;20500;-66
2022/04/05 04:02:36;;;;;;;31.15;25.52;;;30.60;99.90;;;;;;5055463;28;20028;-67
2022/04/05 04:05:04;;;;;;;27.73;20.67;;;30.70;99.90;;;;;;5055288;28;20108;-66
2022/04/05 04:07:30;;;;;;;20.05;16.90;;;30.60;99.90;;;;;;5054410;28;20095;-65
2022/04/05 04:10:02;;;;;;;19.88;16.08;;;30.60;99.90;;;;;;5053986;28;20573;-67
2022/04/05 04:12:29;;;;;;;;;;;30.60;99.90;;;;;;5058929;28;20037;-69
2022/04/05 04:14:55;;;;;;;23.70;17.65;;;30.60;99.90;;;;;;5048466;28;19935;-66
2022/04/05 04:17:23;;;;;;;18.83;16.90;;;30.60;99.90;;;;;;5055569;28;20365;-67
2022/04/05 04:19:49;;;;;;;20.30;16.83;;;30.50;99.90;;;;;;5055324;28;20426;-66
2022/04/05 04:22:16;;;;;;;23.27;17.83;;;30.60;99.90;;;;;;5054510;28;20055;-66
2022/04/05 04:24:43;;;;;;;18.80;15.85;;;30.60;99.90;;;;;;5054542;28;20009;-67
2022/04/05 04:27:11;;;;;;;19.23;16.73;;;30.60;99.90;;;;;;5058244;28;20414;-63
2022/04/05 04:29:38;;;;;;;20.40;16.75;;;30.60;99.90;;;;;;5073060;28;20020;-65
2022/04/05 04:32:05;;;;;;;21.17;16.27;;;30.60;99.90;;;;;;5063378;28;20017;-66
2022/04/05 04:34:32;;;;;;;19.00;15.95;;;30.60;99.90;;;;;;5053993;28;20430;-66
2022/04/05 04:36:59;;;;;;;20.38;15.52;;;30.60;99.90;;;;;;5033297;28;20399;-70
2022/04/05 04:39:25;;;;;;;21.52;15.77;;;30.60;99.90;;;;;;5055019;28;20027;-68
2022/04/05 04:41:56;;;;;;;16.65;14.10;;;30.70;99.90;;;;;;5054968;28;20048;-67
2022/04/05 04:44:23;;;;;;;21.30;16.20;;;30.60;99.90;;;;;;5051466;28;20037;-68
2022/04/05 04:46:50;;;;;;;20.90;15.68;;;30.60;99.90;;;;;;5056812;28;20024;-69
2022/04/05 04:49:17;;;;;;;23.02;17.35;;;30.60;99.90;;;;;;5063122;28;20544;-67
2022/04/05 04:51:44;;;;;;;18.85;15.68;;;30.60;99.90;;;;;;5064075;28;20037;-67
2022/04/05 04:54:13;;;;;;;17.77;15.10;;;30.60;99.90;;;;;;5058931;28;20036;-66
2022/04/05 04:56:40;;;;;;;19.40;15.75;;;30.60;99.90;;;;;;5061067;28;20592;-66
2022/04/05 04:59:06;;;;;;;17.05;14.30;;;30.60;99.90;;;;;;5066006;28;20186;-66
2022/04/05 05:01:34;;;;;;;17.13;14.15;;;30.50;99.90;;;;;;5062942;28;20025;-66
2022/04/05 05:04:01;;;;;;;18.85;14.32;;;30.60;99.90;;;;;;5058462;28;20036;-65
2022/04/05 05:06:28;;;;;;;17.30;14.20;;;30.50;99.90;;;;;;5062213;28;20023;-65
2022/04/05 05:08:54;;;;;;;17.98;13.45;;;30.50;99.90;;;;;;5066222;28;20025;-66
2022/04/05 05:11:21;;;;;;;16.70;13.30;;;30.50;99.90;;;;;;5063930;28;20032;-66
2022/04/05 05:13:48;;;;;;;16.60;13.63;;;30.50;99.90;;;;;;5064415;28;20462;-66
2022/04/05 05:16:15;;;;;;;15.05;12.18;;;30.50;99.90;;;;;;5062724;28;20033;-66
2022/04/05 05:18:42;;;;;;;14.18;10.50;;;30.60;99.90;;;;;;5063698;28;20021;-66
2022/04/05 05:21:09;;;;;;;9.40;8.02;;;30.60;99.90;;;;;;5062622;28;20035;-67
2022/04/05 05:23:35;;;;;;;11.20;8.77;;;30.60;99.90;;;;;;5065281;28;20129;-67
2022/04/05 05:26:02;;;;;;;12.75;7.47;;;30.60;99.90;;;;;;5061103;28;20096;-65
2022/04/05 05:28:28;;;;;;;9.77;7.65;;;30.60;99.90;;;;;;5060429;28;20032;-65
2022/04/05 05:30:55;;;;;;;12.38;8.02;;;30.50;99.90;;;;;;5064971;28;20370;-65
2022/04/05 05:33:22;;;;;;;12.25;8.32;;;30.50;99.90;;;;;;5064622;28;20167;-65
2022/04/05 05:35:49;;;;;;;9.27;7.93;;;30.50;99.90;;;;;;5064271;28;20025;-65
2022/04/05 05:38:15;;;;;;;15.55;8.40;;;30.40;99.90;;;;;;5069380;28;20025;-65
2022/04/05 05:40:42;;;;;;;17.73;10.43;;;30.40;99.90;;;;;;5081509;22;20032;-65
2022/04/05 05:43:09;;;;;;;11.35;7.97;;;30.40;99.90;;;;;;5036754;28;20049;-66
2022/04/05 05:45:37;;;;;;;15.05;9.18;;;30.40;99.90;;;;;;5042121;28;20022;-66
2022/04/05 05:48:05;;;;;;;17.90;11.40;;;30.40;99.90;;;;;;5042427;28;21092;-67
2022/04/05 05:50:32;;;;;;;11.80;9.77;;;30.40;99.90;;;;;;5037621;28;20030;-67
2022/04/05 05:53:02;;;;;;;12.95;10.07;;;30.50;99.90;;;;;;5041291;28;20024;-67
2022/04/05 05:55:29;;;;;;;23.35;14.40;;;30.40;99.90;;;;;;5042135;28;20100;-66
2022/04/05 05:57:56;;;;;;;26.05;18.60;;;30.50;99.90;;;;;;5044092;28;20036;-65
2022/04/05 06:00:23;;;;;;;17.35;13.18;;;30.50;99.90;;;;;;5040770;28;20030;-65
2022/04/05 06:02:56;;;;;;;15.63;10.02;;;30.50;99.90;;;;;;5039657;28;20061;-65
2022/04/05 06:05:23;;;;;;;12.00;8.50;;;30.60;99.90;;;;;;5040455;28;20162;-66
2022/04/05 06:07:50;;;;;;;9.38;7.25;;;30.50;99.90;;;;;;5040969;28;20028;-66
2022/04/05 06:10:18;;;;;;;15.48;8.65;;;30.50;99.90;;;;;;5069697;22;20437;-66
2022/04/05 06:12:48;;;;;;;28.48;17.42;;;30.50;99.90;;;;;;5040607;28;20037;-65
2022/04/05 06:15:16;;;;;;;19.27;13.13;;;30.60;99.90;;;;;;5041250;28;20526;-65
2022/04/05 06:17:46;;;;;;;16.40;12.65;;;30.60;99.90;;;;;;5042540;28;20411;-69
2022/04/05 06:20:14;;;;;;;17.65;13.70;;;30.70;99.90;;;;;;5038896;28;20109;-67
2022/04/05 06:22:44;;;;;;;24.67;18.75;;;30.70;99.90;;;;;;5039635;28;20484;-64
2022/04/05 06:25:12;;;;;;;31.92;17.70;;;30.70;99.90;;;;;;5045686;28;20041;-65
2022/04/05 06:27:39;;;;;;;21.38;17.02;;;30.80;99.90;;;;;;5040690;28;20033;-64
2022/04/05 06:30:07;;;;;;;16.63;12.75;;;30.80;99.90;;;;;;5040660;28;20040;-66
2022/04/05 06:32:35;;;;;;;18.80;11.50;;;30.90;99.90;;;;;;5039800;28;20088;-66
2022/04/05 06:35:04;;;;;;;14.93;11.60;;;30.90;99.90;;;;;;5042600;28;20029;-65
2022/04/05 06:37:30;;;;;;;20.20;12.35;;;30.90;99.90;;;;;;5044154;28;20024;-65
2022/04/05 06:39:57;;;;;;;17.25;11.85;;;31.00;99.90;;;;;;5041948;28;20095;-64
2022/04/05 06:42:25;;;;;;;16.42;10.70;;;31.00;99.90;;;;;;5043500;28;20033;-67
2022/04/05 06:44:54;;;;;;;17.67;12.38;;;31.00;99.90;;;;;;5041868;28;20060;-68
2022/04/05 06:47:21;;;;;;;12.75;10.30;;;31.00;99.90;;;;;;5034727;28;20470;-66
2022/04/05 06:49:48;;;;;;;17.08;11.73;;;31.00;99.90;;;;;;5034077;28;20025;-65
2022/04/05 06:52:15;;;;;;;18.88;12.25;;;31.00;99.90;;;;;;5038164;28;20030;-65
2022/04/05 06:54:42;;;;;;;13.68;10.98;;;31.00;99.90;;;;;;5032290;28;20030;-64
2022/04/05 06:57:10;;;;;;;21.67;11.80;;;31.10;99.90;;;;;;5032122;28;20053;-67
2022/04/05 06:59:37;;;;;;;15.18;10.75;;;31.00;99.90;;;;;;5038146;28;20384;-65
2022/04/05 07:02:04;;;;;;;13.05;10.93;;;31.00;99.90;;;;;;5039565;28;20479;-64
2022/04/05 07:04:30;;;;;;;23.13;11.93;;;31.00;99.90;;;;;;5042877;28;20464;-65
2022/04/05 07:06:57;;;;;;;16.27;11.23;;;31.10;99.90;;;;;;5040665;28;20083;-64
2022/04/05 07:09:24;;;;;;;13.75;10.73;;;31.10;99.90;;;;;;5043503;28;20033;-64
2022/04/05 07:11:50;;;;;;;16.25;11.23;;;31.20;99.90;;;;;;5039436;28;20510;-64
2022/04/05 07:14:17;;;;;;;15.00;11.05;;;31.20;99.90;;;;;;5039209;28;20071;-63
2022/04/05 07:16:44;;;;;;;14.18;10.63;;;31.20;99.90;;;;;;5041259;28;20029;-64
2022/04/05 07:19:13;;;;;;;14.60;10.30;;;31.20;99.90;;;;;;5040493;28;20029;-65
2022/04/05 07:21:40;;;;;;;11.70;9.75;;;31.10;99.90;;;;;;5039806;28;20029;-65
2022/04/05 07:24:07;;;;;;;12.07;10.57;;;31.10;99.90;;;;;;5044786;28;20021;-66
2022/04/05 07:26:33;;;;;;;15.50;10.18;;;31.10;99.90;;;;;;5045282;28;20025;-66
2022/04/05 07:29:00;;;;;;;11.70;9.43;;;31.00;99.90;;;;;;5039236;28;20017;-65
2022/04/05 07:31:27;;;;;;;32.55;18.70;;;31.00;99.90;;;;;;5043686;28;20495;-67
2022/04/05 07:33:54;;;;;;;24.48;15.75;;;31.00;99.90;;;;;;5043461;28;20032;-65
2022/04/05 07:36:20;;;;;;;14.30;10.73;;;31.00;99.90;;;;;;5044748;28;20424;-65
2022/04/05 07:38:47;;;;;;;13.05;10.15;;;30.90;99.90;;;;;;5044224;28;20100;-66
2022/04/05 07:41:14;;;;;;;21.75;12.52;;;30.90;99.90;;;;;;5045132;28;20021;-65
2022/04/05 07:43:40;;;;;;;18.95;10.70;;;30.90;99.90;;;;;;5045559;28;20032;-64
2022/04/05 07:46:10;;;;;;;16.25;10.45;;;30.90;99.90;;;;;;5045420;28;20430;-65
2022/04/05 07:48:36;;;;;;;14.35;10.20;;;30.80;99.90;;;;;;5043842;28;20040;-65
2022/04/05 07:51:04;;;;;;;13.02;10.30;;;30.80;99.90;;;;;;5042719;28;20384;-66
2022/04/05 07:53:30;;;;;;;14.95;10.73;;;30.80;99.90;;;;;;5043550;28;20877;-64
2022/04/05 07:55:57;;;;;;;14.98;9.98;;;30.80;99.90;;;;;;5042105;28;20564;-65
2022/04/05 07:58:25;;;;;;;16.98;9.70;;;30.80;99.90;;;;;;5045012;28;20398;-65
2022/04/05 08:00:52;;;;;;;15.40;8.77;;;30.80;99.90;;;;;;5046792;28;20103;-65
2022/04/05 08:03:19;;;;;;;19.23;9.77;;;30.70;99.90;;;;;;5047193;28;20033;-65
2022/04/05 08:05:45;;;;;;;12.00;9.38;;;30.70;99.90;;;;;;5035715;28;20020;-65
2022/04/05 08:08:12;;;;;;;14.05;8.88;;;30.70;99.90;;;;;;5035354;28;20014;-65
2022/04/05 08:10:39;;;;;;;12.38;8.40;;;30.70;99.90;;;;;;5035328;28;20040;-65
2022/04/05 08:13:06;;;;;;;13.38;8.52;;;30.60;99.90;;;;;;5035453;28;20507;-65
2022/04/05 08:15:33;;;;;;;14.98;9.27;;;30.60;99.90;;;;;;5034150;28;20399;-64
2022/04/05 08:17:59;;;;;;;72.45;15.80;;;30.60;99.90;;;;;;5037014;28;20033;-66
2022/04/05 08:20:26;;;;;;;28.13;11.30;;;30.60;99.90;;;;;;5043861;28;20380;-65
2022/04/05 08:22:53;;;;;;;15.98;9.18;;;30.60;99.90;;;;;;5042257;28;20026;-64
2022/04/05 08:25:21;;;;;;;16.33;9.82;;;30.60;99.90;;;;;;5041331;28;20021;-65
2022/04/05 08:27:49;;;;;;;15.60;8.80;;;30.60;99.90;;;;;;5037930;28;20097;-64
2022/04/05 08:30:17;;;;;;;14.98;9.02;;;30.60;99.90;;;;;;5035071;28;20026;-64
2022/04/05 08:32:46;;;;;;;14.30;7.63;;;30.60;99.90;;;;;;5029366;28;20083;-65
2022/04/05 08:35:16;;;;;;;15.43;8.88;;;30.50;99.90;;;;;;5025492;28;20060;-66
2022/04/05 08:37:44;;;;;;;19.15;11.70;;;30.60;99.90;;;;;;5034827;28;20472;-65
2022/04/05 08:40:15;;;;;;;12.45;9.98;;;30.60;99.90;;;;;;5039815;28;20301;-67
2022/04/05 08:42:45;;;;;;;18.48;11.23;;;30.40;99.90;;;;;;5039928;28;20052;-65
2022/04/05 08:45:14;;;;;;;14.93;9.63;;;30.40;99.90;;;;;;5040350;28;20037;-65
2022/04/05 08:47:47;;;;;;;14.68;9.65;;;30.40;99.90;;;;;;5043817;28;20041;-65
2022/04/05 08:50:16;;;;;;;17.77;10.10;;;30.40;99.90;;;;;;5036052;28;20037;-64
2022/04/05 08:52:44;;;;;;;16.33;10.55;;;30.40;99.90;;;;;;5039401;28;20033;-65
2022/04/05 08:55:12;;;;;;;16.90;10.50;;;30.50;99.90;;;;;;5038572;28;20038;-65
2022/04/05 08:57:39;;;;;;;25.48;11.23;;;30.50;99.90;;;;;;5035437;28;20029;-65
2022/04/05 09:00:09;;;;;;;16.27;10.50;;;30.60;99.90;;;;;;5032260;28;20064;-67
2022/04/05 09:02:36;;;;;;;14.27;10.50;;;30.60;99.90;;;;;;5034136;28;20029;-64
2022/04/05 09:05:04;;;;;;;14.07;9.57;;;30.60;99.90;;;;;;5034227;28;20033;-63
2022/04/05 09:07:33;;;;;;;16.23;9.77;;;30.70;99.90;;;;;;5032504;28;20075;-67
2022/04/05 09:10:12;;;;;;;13.27;9.43;;;30.70;99.00;;;;;;5023713;28;20033;-66
2022/04/05 09:12:50;;;;;;;16.77;9.63;;;30.70;99.80;;;;;;5031881;28;20773;-66
2022/04/05 09:15:17;;;;;;;14.68;8.88;;;30.70;99.90;;;;;;5033491;28;20029;-66
2022/04/05 09:17:48;;;;;;;14.05;9.32;;;30.70;99.90;;;;;;5033226;28;20021;-66
2022/04/05 09:20:17;;;;;;;14.23;9.88;;;30.80;99.90;;;;;;5033459;28;20083;-70
2022/04/05 09:22:46;;;;;;;12.98;8.70;;;30.80;99.90;;;;;;5033129;28;20033;-69
2022/04/05 09:25:16;;;;;;;21.02;9.40;;;30.80;99.90;;;;;;5033383;28;20112;-66
2022/04/05 09:27:49;;;;;;;14.88;9.85;;;30.80;99.90;;;;;;5033363;28;20045;-68
2022/04/05 09:30:22;;;;;;;17.58;9.93;;;30.70;99.90;;;;;;5033001;28;20067;-65
2022/04/05 09:32:49;;;;;;;12.18;8.30;;;30.70;99.90;;;;;;5032550;28;20096;-65
2022/04/05 09:35:20;;;;;;;20.27;13.82;;;30.70;99.90;;;;;;5032974;28;20026;-65
2022/04/05 09:37:48;;;;;;;16.13;9.73;;;30.70;99.90;;;;;;5032578;28;20060;-65
2022/04/05 09:40:32;;;;;;;21.42;12.27;;;30.70;99.90;;;;;;5033530;28;20033;-65
2022/04/05 09:43:00;;;;;;;13.95;10.25;;;30.70;99.90;;;;;;5033965;28;20538;-65
2022/04/05 09:46:00;;;;;;;14.35;9.93;;;30.60;99.90;;;;;;5034139;28;20400;-66
2022/04/05 09:48:30;;;;;;;14.50;9.70;;;30.60;99.90;;;;;;5032886;28;20110;-68
2022/04/05 09:50:59;;;;;;;13.45;9.38;;;30.50;99.90;;;;;;5033094;28;20029;-64
2022/04/05 09:53:40;;;;;;;12.40;8.32;;;30.40;99.90;;;;;;5033025;28;20040;-66
2022/04/05 09:56:18;;;;;;;12.02;9.38;;;30.40;99.90;;;;;;5033330;28;20120;-68
2022/04/05 09:58:54;;;;;;;12.77;9.85;;;30.40;99.90;;;;;;5028855;28;20026;-68
2022/04/05 10:01:25;;;;;;;17.15;12.48;;;30.30;99.90;;;;;;5033406;28;20079;-68
2022/04/05 10:04:15;;;;;;;22.38;13.65;;;30.30;99.90;;;;;;5032475;28;20034;-64
2022/04/05 10:06:44;;;;;;;18.98;11.15;;;30.30;99.90;;;;;;5027854;28;20495;-65
2022/04/05 10:09:12;;;;;;;15.15;11.02;;;30.10;99.90;;;;;;5040087;28;20116;-66
2022/04/05 10:11:42;;;;;;;17.70;11.70;;;30.10;99.90;;;;;;5042564;28;20052;-68
2022/04/05 10:14:13;;;;;;;18.38;12.30;;;30.10;99.90;;;;;;5043277;28;20041;-66
2022/04/05 10:16:41;;;;;;;18.33;13.03;;;30.00;99.90;;;;;;5069613;22;20140;-65
2022/04/05 10:19:10;;;;;;;20.90;13.57;;;30.00;99.90;;;;;;5051521;28;20336;-65
2022/04/05 10:21:38;;;;;;;31.60;20.95;;;29.90;99.90;;;;;;5050553;28;20301;-65
2022/04/05 10:24:06;;;;;;;271.13;163.05;;;29.80;99.90;;;;;;5051804;28;20064;-66
2022/04/05 10:26:36;;;;;;;116.47;71.28;;;29.70;99.90;;;;;;5053334;28;20024;-65
2022/04/05 10:29:08;;;;;;;25.13;16.35;;;29.70;99.90;;;;;;5050190;28;20025;-66
2022/04/05 10:31:44;;;;;;;24.08;16.08;;;29.60;99.90;;;;;;5049823;28;20188;-68
2022/04/05 10:34:32;;;;;;;19.42;11.77;;;29.50;99.90;;;;;;5055783;28;20095;-65
2022/04/05 10:37:16;;;;;;;39.53;24.15;;;29.50;99.90;;;;;;5050089;28;20547;-65
2022/04/05 10:40:05;;;;;;;25.08;15.10;;;29.50;99.90;;;;;;5050726;28;20264;-66
2022/04/05 10:42:38;;;;;;;19.40;13.80;;;29.50;99.90;;;;;;5059764;28;20067;-66
2022/04/05 10:45:28;;;;;;;23.83;18.00;;;29.40;99.90;;;;;;5066107;28;20417;-66
2022/04/05 10:48:18;;;;;;;29.42;18.63;;;29.40;99.90;;;;;;5067402;28;20033;-67
2022/04/05 10:51:07;;;;;;;15.25;9.75;;;29.30;99.90;;;;;;5067925;28;20036;-66
2022/04/05 10:53:38;;;;;;;15.98;11.30;;;29.20;99.90;;;;;;5066464;28;20406;-67
2022/04/05 10:56:08;;;;;;;24.92;16.00;;;29.10;99.90;;;;;;5066375;28;20376;-66
2022/04/05 10:58:37;;;;;;;100.20;71.53;;;29.10;99.90;;;;;;5064645;28;20025;-66
2022/04/05 11:01:24;;;;;;;191.48;137.05;;;29.00;99.90;;;;;;5069979;28;20085;-66
2022/04/05 11:04:16;;;;;;;118.20;78.05;;;29.10;99.90;;;;;;5075159;28;20028;-66
2022/04/05 11:07:09;;;;;;;50.90;30.52;;;29.10;99.90;;;;;;5075799;28;20032;-66
2022/04/05 11:09:55;;;;;;;46.03;31.33;;;29.00;99.90;;;;;;5065519;28;20028;-66
2022/04/05 11:12:25;;;;;;;127.95;82.72;;;28.90;99.90;;;;;;5075456;28;20471;-64
2022/04/05 11:15:01;;;;;;;34.05;20.52;;;28.80;99.90;;;;;;5076910;28;20024;-65
2022/04/05 11:17:28;;;;;;;30.48;20.77;;;28.80;99.90;;;;;;5075730;28;20125;-66
2022/04/05 11:19:58;;;;;;;39.90;25.83;;;28.80;99.90;;;;;;5076034;28;20037;-66
2022/04/05 11:22:28;;;;;;;64.07;46.17;;;28.80;99.90;;;;;;5070269;28;20028;-65
2022/04/05 11:24:56;;;;;;;116.00;79.78;;;28.80;99.90;;;;;;5064268;28;20043;-65
2022/04/05 11:27:35;;;;;;;39.72;27.50;;;28.80;99.90;;;;;;5072802;28;20036;-66
2022/04/05 11:30:22;;;;;;;27.25;18.35;;;28.80;99.90;;;;;;5076331;28;20020;-70
2022/04/05 11:33:09;;;;;;;20.52;13.18;;;28.70;99.90;;;;;;5075363;28;20479;-66
2022/04/05 11:35:37;;;;;;;45.95;27.00;;;28.60;99.90;;;;;;5070501;28;20020;-65
2022/04/05 11:38:05;;;;;;;25.58;16.60;;;28.70;99.90;;;;;;5070769;28;20076;-66
2022/04/05 11:40:32;;;;;;;30.95;19.15;;;28.60;99.90;;;;;;5074076;28;20024;-68
2022/04/05 11:43:03;;;;;;;143.45;94.97;;;28.60;99.90;;;;;;5061325;28;20013;-67
2022/04/05 11:45:31;;;;;;;130.05;86.75;;;28.70;99.90;;;;;;5055434;28;20081;-65
2022/04/05 11:47:59;;;;;;;78.90;52.13;;;28.70;99.90;;;;;;5073695;28;20024;-65
2022/04/05 11:50:25;;;;;;;32.80;24.70;;;28.60;99.90;;;;;;5073691;28;20037;-65
2022/04/05 11:52:52;;;;;;;24.92;19.27;;;28.50;99.90;;;;;;5073512;28;20028;-65
2022/04/05 11:58:11;;;;;;;73.78;51.40;;;28.50;99.90;;;;;;5060578;28;20028;-70
2022/04/05 12:00:58;;;;;;;74.45;54.10;;;28.60;99.90;;;;;;5071519;28;20099;-67
2022/04/05 12:03:25;;;;;;;86.40;52.75;;;28.60;99.90;;;;;;5067768;28;20021;-66
2022/04/05 12:05:52;;;;;;;113.47;68.75;;;28.60;99.90;;;;;;5060570;28;20471;-67
2022/04/05 12:08:19;;;;;;;120.55;75.47;;;28.60;99.90;;;;;;5069799;28;20040;-64
2022/04/05 12:10:46;;;;;;;117.88;71.75;;;28.60;99.90;;;;;;5074605;28;20039;-65
2022/04/05 12:13:13;;;;;;;55.13;34.80;;;28.60;99.90;;;;;;5069502;28;20025;-64
2022/04/05 12:15:39;;;;;;;97.88;62.63;;;28.60;99.90;;;;;;5067417;28;20265;-65
2022/04/05 12:18:28;;;;;;;135.48;87.05;;;28.60;99.90;;;;;;5066015;28;20162;-65
2022/04/05 12:20:58;;;;;;;69.25;42.03;;;28.60;99.90;;;;;;5056254;28;20027;-66
2022/04/05 12:23:32;;;;;;;55.22;34.55;;;28.60;99.90;;;;;;5054252;28;20101;-67
2022/04/05 12:26:09;;;;;;;28.90;17.25;;;28.60;99.90;;;;;;5054369;28;20021;-64
2022/04/05 12:28:38;;;;;;;24.08;15.70;;;28.60;99.90;;;;;;5054232;28;20063;-66
2022/04/05 12:31:08;;;;;;;31.80;19.08;;;28.50;99.90;;;;;;5056801;28;20048;-66
2022/04/05 12:33:36;;;;;;;25.83;16.45;;;28.50;99.90;;;;;;5074516;28;20041;-65
2022/04/05 12:36:07;;;;;;;24.52;16.48;;;28.50;99.90;;;;;;5070784;28;20063;-66
2022/04/05 12:38:34;;;;;;;37.17;21.20;;;28.50;99.90;;;;;;5074978;28;20024;-66
2022/04/05 12:41:03;;;;;;;35.70;19.98;;;28.50;99.90;;;;;;5072492;28;20422;-65